ADDS METAR Data

Data at: 2047 UTC 15 Aug 2018

METAR for:KEWR (Newark Intl, NJ, US)
Text:KEWR 151951Z 27012KT 10SM SCT055 BKN250 32/18 A2990 RMK AO2 SLP126 T03220183
Temperature: 32.2°C ( 90°F)
Dewpoint: 18.3°C ( 65°F) [RH = 44%]
Pressure (altimeter):29.90 inches Hg (1012.6 mb) [Sea level pressure: 1012.6 mb]
Winds:from the W (270 degrees) at 14 MPH (12 knots; 6.2 m/s)
Visibility:10 or more sm (16+ km)
Ceiling:25000 feet AGL
Clouds: scattered clouds at 5500 feet AGL, broken clouds at 25000 feet AGL